sensor_id;sensor_type;location;lat;lon;timestamp;P1;durP1;ratioP1;P2;durP2;ratioP2
59950;SDS011;45812;53.540;9.774;2023-04-21T00:01:59;17.55;;;7.68;;
59950;SDS011;45812;53.540;9.774;2023-04-21T00:04:24;16.50;;;7.53;;
59950;SDS011;45812;53.540;9.774;2023-04-21T00:06:50;21.80;;;7.47;;
59950;SDS011;45812;53.540;9.774;2023-04-21T00:09:17;22.15;;;7.80;;
59950;SDS011;45812;53.540;9.774;2023-04-21T00:11:42;13.80;;;7.22;;
59950;SDS011;45812;53.540;9.774;2023-04-21T00:14:07;20.83;;;7.72;;
59950;SDS011;45812;53.540;9.774;2023-04-21T00:16:33;19.98;;;7.60;;
59950;SDS011;45812;53.540;9.774;2023-04-21T00:18:58;13.77;;;6.57;;
59950;SDS011;45812;53.540;9.774;2023-04-21T00:21:23;17.08;;;7.90;;
59950;SDS011;45812;53.540;9.774;2023-04-21T00:23:49;15.52;;;7.20;;
59950;SDS011;45812;53.540;9.774;2023-04-21T00:26:14;16.17;;;6.72;;
59950;SDS011;45812;53.540;9.774;2023-04-21T00:28:39;16.70;;;7.30;;
59950;SDS011;45812;53.540;9.774;2023-04-21T00:31:05;19.17;;;6.85;;
59950;SDS011;45812;53.540;9.774;2023-04-21T00:33:30;18.13;;;7.07;;
59950;SDS011;45812;53.540;9.774;2023-04-21T00:35:55;18.50;;;7.00;;
59950;SDS011;45812;53.540;9.774;2023-04-21T00:38:23;12.70;;;6.85;;
59950;SDS011;45812;53.540;9.774;2023-04-21T00:40:48;16.75;;;6.57;;
59950;SDS011;45812;53.540;9.774;2023-04-21T00:43:13;13.65;;;6.10;;
59950;SDS011;45812;53.540;9.774;2023-04-21T00:45:38;17.90;;;7.07;;
59950;SDS011;45812;53.540;9.774;2023-04-21T00:48:04;19.30;;;6.85;;
59950;SDS011;45812;53.540;9.774;2023-04-21T00:50:30;19.70;;;7.13;;
59950;SDS011;45812;53.540;9.774;2023-04-21T00:52:56;18.58;;;6.97;;
59950;SDS011;45812;53.540;9.774;2023-04-21T00:55:22;13.68;;;6.28;;
59950;SDS011;45812;53.540;9.774;2023-04-21T00:57:48;14.98;;;6.80;;
59950;SDS011;45812;53.540;9.774;2023-04-21T01:00:16;17.13;;;6.72;;
59950;SDS011;45812;53.540;9.774;2023-04-21T01:02:41;17.50;;;6.85;;
59950;SDS011;45812;53.540;9.774;2023-04-21T01:05:09;15.23;;;6.57;;
59950;SDS011;45812;53.540;9.774;2023-04-21T01:07:35;17.33;;;7.40;;
59950;SDS011;45812;53.540;9.774;2023-04-21T01:10:01;15.32;;;6.82;;
59950;SDS011;45812;53.540;9.774;2023-04-21T01:12:27;18.67;;;7.65;;
59950;SDS011;45812;53.540;9.774;2023-04-21T01:14:52;18.23;;;7.22;;
59950;SDS011;45812;53.540;9.774;2023-04-21T01:17:18;22.02;;;7.35;;
59950;SDS011;45812;53.540;9.774;2023-04-21T01:19:43;13.40;;;6.95;;
59950;SDS011;45812;53.540;9.774;2023-04-21T01:22:09;13.73;;;7.43;;
59950;SDS011;45812;53.540;9.774;2023-04-21T01:24:40;12.30;;;6.20;;
59950;SDS011;45812;53.540;9.774;2023-04-21T01:27:19;13.43;;;6.55;;
59950;SDS011;45812;53.540;9.774;2023-04-21T01:29:45;15.20;;;6.47;;
59950;SDS011;45812;53.540;9.774;2023-04-21T01:32:15;20.70;;;6.75;;
59950;SDS011;45812;53.540;9.774;2023-04-21T01:34:41;14.57;;;6.60;;
59950;SDS011;45812;53.540;9.774;2023-04-21T01:37:08;16.35;;;7.25;;
59950;SDS011;45812;53.540;9.774;2023-04-21T01:39:38;14.05;;;6.18;;
59950;SDS011;45812;53.540;9.774;2023-04-21T01:42:04;16.90;;;7.65;;
59950;SDS011;45812;53.540;9.774;2023-04-21T01:44:30;13.20;;;6.22;;
59950;SDS011;45812;53.540;9.774;2023-04-21T01:46:55;14.95;;;6.28;;
59950;SDS011;45812;53.540;9.774;2023-04-21T01:49:20;19.42;;;6.90;;
59950;SDS011;45812;53.540;9.774;2023-04-21T01:51:46;16.08;;;7.88;;
59950;SDS011;45812;53.540;9.774;2023-04-21T01:54:11;20.88;;;6.93;;
59950;SDS011;45812;53.540;9.774;2023-04-21T01:56:36;13.77;;;6.88;;
59950;SDS011;45812;53.540;9.774;2023-04-21T01:59:02;15.40;;;7.10;;
59950;SDS011;45812;53.540;9.774;2023-04-21T02:01:28;18.05;;;6.93;;
59950;SDS011;45812;53.540;9.774;2023-04-21T02:03:53;18.20;;;6.55;;
59950;SDS011;45812;53.540;9.774;2023-04-21T02:06:18;17.92;;;7.03;;
59950;SDS011;45812;53.540;9.774;2023-04-21T02:08:43;16.27;;;7.35;;
59950;SDS011;45812;53.540;9.774;2023-04-21T02:11:08;16.55;;;6.63;;
59950;SDS011;45812;53.540;9.774;2023-04-21T02:13:34;15.10;;;6.68;;
59950;SDS011;45812;53.540;9.774;2023-04-21T02:15:59;13.55;;;6.45;;
59950;SDS011;45812;53.540;9.774;2023-04-21T02:18:25;18.70;;;7.70;;
59950;SDS011;45812;53.540;9.774;2023-04-21T02:20:50;11.65;;;6.60;;
59950;SDS011;45812;53.540;9.774;2023-04-21T02:23:15;25.38;;;7.47;;
59950;SDS011;45812;53.540;9.774;2023-04-21T02:25:41;19.25;;;7.38;;
59950;SDS011;45812;53.540;9.774;2023-04-21T02:28:06;20.33;;;6.50;;
59950;SDS011;45812;53.540;9.774;2023-04-21T02:30:32;14.23;;;6.65;;
59950;SDS011;45812;53.540;9.774;2023-04-21T02:32:58;17.25;;;7.30;;
59950;SDS011;45812;53.540;9.774;2023-04-21T02:35:23;16.23;;;6.95;;
59950;SDS011;45812;53.540;9.774;2023-04-21T02:37:48;18.25;;;6.88;;
59950;SDS011;45812;53.540;9.774;2023-04-21T02:40:13;17.10;;;6.78;;
59950;SDS011;45812;53.540;9.774;2023-04-21T02:42:39;19.35;;;7.43;;
59950;SDS011;45812;53.540;9.774;2023-04-21T02:45:04;14.70;;;6.25;;
59950;SDS011;45812;53.540;9.774;2023-04-21T02:47:30;20.00;;;6.95;;
59950;SDS011;45812;53.540;9.774;2023-04-21T02:49:55;17.08;;;7.22;;
59950;SDS011;45812;53.540;9.774;2023-04-21T02:52:20;15.93;;;6.32;;
59950;SDS011;45812;53.540;9.774;2023-04-21T02:54:45;16.15;;;6.85;;
59950;SDS011;45812;53.540;9.774;2023-04-21T02:57:11;15.77;;;6.30;;
59950;SDS011;45812;53.540;9.774;2023-04-21T02:59:36;19.92;;;7.15;;
59950;SDS011;45812;53.540;9.774;2023-04-21T03:02:01;15.73;;;6.40;;
59950;SDS011;45812;53.540;9.774;2023-04-21T03:04:26;15.73;;;6.82;;
59950;SDS011;45812;53.540;9.774;2023-04-21T03:06:52;20.88;;;7.38;;
59950;SDS011;45812;53.540;9.774;2023-04-21T03:09:18;12.52;;;7.05;;
59950;SDS011;45812;53.540;9.774;2023-04-21T03:11:43;21.58;;;7.25;;
59950;SDS011;45812;53.540;9.774;2023-04-21T03:14:08;15.10;;;6.70;;
59950;SDS011;45812;53.540;9.774;2023-04-21T03:16:34;13.55;;;6.35;;
59950;SDS011;45812;53.540;9.774;2023-04-21T03:18:59;12.43;;;6.13;;
59950;SDS011;45812;53.540;9.774;2023-04-21T03:21:24;17.17;;;7.30;;
59950;SDS011;45812;53.540;9.774;2023-04-21T03:23:49;15.88;;;7.00;;
59950;SDS011;45812;53.540;9.774;2023-04-21T03:26:16;17.08;;;7.35;;
59950;SDS011;45812;53.540;9.774;2023-04-21T03:28:42;17.27;;;6.97;;
59950;SDS011;45812;53.540;9.774;2023-04-21T03:31:07;18.73;;;6.28;;
59950;SDS011;45812;53.540;9.774;2023-04-21T03:33:32;15.85;;;6.72;;
59950;SDS011;45812;53.540;9.774;2023-04-21T03:35:57;16.08;;;6.35;;
59950;SDS011;45812;53.540;9.774;2023-04-21T03:38:22;18.10;;;7.05;;
59950;SDS011;45812;53.540;9.774;2023-04-21T03:40:48;17.33;;;6.70;;
59950;SDS011;45812;53.540;9.774;2023-04-21T03:43:13;15.02;;;6.55;;
59950;SDS011;45812;53.540;9.774;2023-04-21T03:45:38;16.13;;;6.97;;
59950;SDS011;45812;53.540;9.774;2023-04-21T03:48:04;15.15;;;7.07;;
59950;SDS011;45812;53.540;9.774;2023-04-21T03:50:29;12.05;;;6.50;;
59950;SDS011;45812;53.540;9.774;2023-04-21T03:52:55;14.55;;;6.43;;
59950;SDS011;45812;53.540;9.774;2023-04-21T03:55:20;15.73;;;6.88;;
59950;SDS011;45812;53.540;9.774;2023-04-21T03:57:45;18.95;;;7.43;;
59950;SDS011;45812;53.540;9.774;2023-04-21T04:00:11;17.63;;;7.03;;
59950;SDS011;45812;53.540;9.774;2023-04-21T04:02:40;15.75;;;6.55;;
59950;SDS011;45812;53.540;9.774;2023-04-21T04:05:05;17.98;;;7.45;;
59950;SDS011;45812;53.540;9.774;2023-04-21T04:07:31;16.02;;;7.38;;
59950;SDS011;45812;53.540;9.774;2023-04-21T04:09:57;14.50;;;6.97;;
59950;SDS011;45812;53.540;9.774;2023-04-21T04:12:22;18.45;;;7.05;;
59950;SDS011;45812;53.540;9.774;2023-04-21T04:14:47;19.40;;;7.40;;
59950;SDS011;45812;53.540;9.774;2023-04-21T04:17:13;16.75;;;7.07;;
59950;SDS011;45812;53.540;9.774;2023-04-21T04:19:38;17.52;;;6.95;;
59950;SDS011;45812;53.540;9.774;2023-04-21T04:22:03;18.30;;;7.13;;
59950;SDS011;45812;53.540;9.774;2023-04-21T04:24:28;17.55;;;6.75;;
59950;SDS011;45812;53.540;9.774;2023-04-21T04:26:57;14.70;;;7.03;;
59950;SDS011;45812;53.540;9.774;2023-04-21T04:29:23;12.95;;;6.88;;
59950;SDS011;45812;53.540;9.774;2023-04-21T04:31:49;11.30;;;6.45;;
59950;SDS011;45812;53.540;9.774;2023-04-21T04:34:15;12.20;;;6.50;;
59950;SDS011;45812;53.540;9.774;2023-04-21T04:36:40;23.30;;;9.35;;
59950;SDS011;45812;53.540;9.774;2023-04-21T04:39:06;15.20;;;7.35;;
59950;SDS011;45812;53.540;9.774;2023-04-21T04:41:32;15.90;;;7.00;;
59950;SDS011;45812;53.540;9.774;2023-04-21T04:43:57;14.27;;;7.07;;
59950;SDS011;45812;53.540;9.774;2023-04-21T04:46:23;19.48;;;7.07;;
59950;SDS011;45812;53.540;9.774;2023-04-21T04:48:49;18.25;;;7.13;;
59950;SDS011;45812;53.540;9.774;2023-04-21T04:51:15;17.83;;;7.65;;
59950;SDS011;45812;53.540;9.774;2023-04-21T04:53:40;16.55;;;7.40;;
59950;SDS011;45812;53.540;9.774;2023-04-21T04:56:06;17.85;;;7.55;;
59950;SDS011;45812;53.540;9.774;2023-04-21T04:58:31;13.73;;;6.70;;
59950;SDS011;45812;53.540;9.774;2023-04-21T05:00:56;16.15;;;6.18;;
59950;SDS011;45812;53.540;9.774;2023-04-21T05:03:21;12.70;;;6.47;;
59950;SDS011;45812;53.540;9.774;2023-04-21T05:05:47;14.77;;;6.97;;
59950;SDS011;45812;53.540;9.774;2023-04-21T05:08:12;14.00;;;6.72;;
59950;SDS011;45812;53.540;9.774;2023-04-21T05:10:38;12.85;;;7.10;;
59950;SDS011;45812;53.540;9.774;2023-04-21T05:13:04;14.77;;;7.03;;
59950;SDS011;45812;53.540;9.774;2023-04-21T05:15:29;15.48;;;6.65;;
59950;SDS011;45812;53.540;9.774;2023-04-21T05:17:55;18.27;;;7.18;;
59950;SDS011;45812;53.540;9.774;2023-04-21T05:20:20;17.73;;;7.50;;
59950;SDS011;45812;53.540;9.774;2023-04-21T05:22:45;15.95;;;7.45;;
59950;SDS011;45812;53.540;9.774;2023-04-21T05:25:11;16.05;;;7.55;;
59950;SDS011;45812;53.540;9.774;2023-04-21T05:27:40;16.20;;;6.82;;
59950;SDS011;45812;53.540;9.774;2023-04-21T05:30:06;15.27;;;7.00;;
59950;SDS011;45812;53.540;9.774;2023-04-21T05:32:31;16.42;;;7.15;;
59950;SDS011;45812;53.540;9.774;2023-04-21T05:34:57;15.18;;;7.55;;
59950;SDS011;45812;53.540;9.774;2023-04-21T05:37:23;16.08;;;7.57;;
59950;SDS011;45812;53.540;9.774;2023-04-21T05:39:48;15.82;;;7.57;;
59950;SDS011;45812;53.540;9.774;2023-04-21T05:42:14;15.70;;;8.30;;
59950;SDS011;45812;53.540;9.774;2023-04-21T05:44:42;16.63;;;6.80;;
59950;SDS011;45812;53.540;9.774;2023-04-21T05:47:07;16.58;;;6.88;;
59950;SDS011;45812;53.540;9.774;2023-04-21T05:49:32;16.83;;;7.70;;
59950;SDS011;45812;53.540;9.774;2023-04-21T05:51:58;16.17;;;7.25;;
59950;SDS011;45812;53.540;9.774;2023-04-21T05:54:23;16.98;;;6.93;;
59950;SDS011;45812;53.540;9.774;2023-04-21T05:56:48;16.10;;;7.50;;
59950;SDS011;45812;53.540;9.774;2023-04-21T05:59:14;17.23;;;7.50;;
59950;SDS011;45812;53.540;9.774;2023-04-21T06:01:40;15.85;;;6.93;;
59950;SDS011;45812;53.540;9.774;2023-04-21T06:04:06;20.75;;;7.32;;
59950;SDS011;45812;53.540;9.774;2023-04-21T06:06:32;14.05;;;6.70;;
59950;SDS011;45812;53.540;9.774;2023-04-21T06:08:57;15.38;;;6.82;;
59950;SDS011;45812;53.540;9.774;2023-04-21T06:11:22;15.63;;;6.72;;
59950;SDS011;45812;53.540;9.774;2023-04-21T06:13:48;14.52;;;6.90;;
59950;SDS011;45812;53.540;9.774;2023-04-21T06:16:13;19.15;;;6.63;;
59950;SDS011;45812;53.540;9.774;2023-04-21T06:18:39;14.65;;;7.28;;
59950;SDS011;45812;53.540;9.774;2023-04-21T06:21:04;14.27;;;7.80;;
59950;SDS011;45812;53.540;9.774;2023-04-21T06:23:29;14.77;;;7.15;;
59950;SDS011;45812;53.540;9.774;2023-04-21T06:26:04;17.10;;;7.18;;
59950;SDS011;45812;53.540;9.774;2023-04-21T06:28:31;19.50;;;7.55;;
59950;SDS011;45812;53.540;9.774;2023-04-21T06:31:00;11.70;;;6.65;;
59950;SDS011;45812;53.540;9.774;2023-04-21T06:33:26;15.70;;;7.10;;
59950;SDS011;45812;53.540;9.774;2023-04-21T06:35:52;15.52;;;6.72;;
59950;SDS011;45812;53.540;9.774;2023-04-21T06:38:18;14.05;;;6.53;;
59950;SDS011;45812;53.540;9.774;2023-04-21T06:40:43;12.90;;;6.70;;
59950;SDS011;45812;53.540;9.774;2023-04-21T06:43:09;13.77;;;7.35;;
59950;SDS011;45812;53.540;9.774;2023-04-21T06:45:34;13.70;;;7.18;;
59950;SDS011;45812;53.540;9.774;2023-04-21T06:47:59;17.00;;;7.57;;
59950;SDS011;45812;53.540;9.774;2023-04-21T06:50:25;15.90;;;6.82;;
59950;SDS011;45812;53.540;9.774;2023-04-21T06:52:50;17.52;;;7.45;;
59950;SDS011;45812;53.540;9.774;2023-04-21T06:55:15;17.52;;;7.40;;
59950;SDS011;45812;53.540;9.774;2023-04-21T06:57:41;15.43;;;7.13;;
59950;SDS011;45812;53.540;9.774;2023-04-21T07:00:06;15.23;;;7.00;;
59950;SDS011;45812;53.540;9.774;2023-04-21T07:02:32;20.83;;;7.30;;
59950;SDS011;45812;53.540;9.774;2023-04-21T07:04:57;18.23;;;7.57;;
59950;SDS011;45812;53.540;9.774;2023-04-21T07:07:23;15.43;;;6.65;;
59950;SDS011;45812;53.540;9.774;2023-04-21T07:09:48;14.18;;;6.60;;
59950;SDS011;45812;53.540;9.774;2023-04-21T07:12:13;16.98;;;7.53;;
59950;SDS011;45812;53.540;9.774;2023-04-21T07:14:39;13.82;;;6.75;;
59950;SDS011;45812;53.540;9.774;2023-04-21T07:17:04;15.27;;;7.28;;
59950;SDS011;45812;53.540;9.774;2023-04-21T07:19:30;12.25;;;6.72;;
59950;SDS011;45812;53.540;9.774;2023-04-21T07:21:55;14.75;;;6.55;;
59950;SDS011;45812;53.540;9.774;2023-04-21T07:24:20;14.15;;;6.38;;
59950;SDS011;45812;53.540;9.774;2023-04-21T07:26:45;15.80;;;7.07;;
59950;SDS011;45812;53.540;9.774;2023-04-21T07:29:11;14.00;;;6.75;;
59950;SDS011;45812;53.540;9.774;2023-04-21T07:31:36;15.27;;;6.55;;
59950;SDS011;45812;53.540;9.774;2023-04-21T07:34:01;16.10;;;6.85;;
59950;SDS011;45812;53.540;9.774;2023-04-21T07:36:26;14.32;;;6.65;;
59950;SDS011;45812;53.540;9.774;2023-04-21T07:38:52;18.40;;;7.78;;
59950;SDS011;45812;53.540;9.774;2023-04-21T07:41:17;13.23;;;6.50;;
59950;SDS011;45812;53.540;9.774;2023-04-21T07:43:43;13.43;;;6.53;;
59950;SDS011;45812;53.540;9.774;2023-04-21T07:46:09;16.08;;;7.00;;
59950;SDS011;45812;53.540;9.774;2023-04-21T07:48:34;17.45;;;7.30;;
59950;SDS011;45812;53.540;9.774;2023-04-21T07:50:59;13.48;;;6.88;;
59950;SDS011;45812;53.540;9.774;2023-04-21T07:53:27;13.82;;;6.40;;
59950;SDS011;45812;53.540;9.774;2023-04-21T07:55:52;16.70;;;7.07;;
59950;SDS011;45812;53.540;9.774;2023-04-21T07:58:18;15.35;;;7.18;;
59950;SDS011;45812;53.540;9.774;2023-04-21T08:00:43;16.38;;;7.47;;
59950;SDS011;45812;53.540;9.774;2023-04-21T08:03:08;15.60;;;7.07;;
59950;SDS011;45812;53.540;9.774;2023-04-21T08:05:33;16.98;;;7.30;;
59950;SDS011;45812;53.540;9.774;2023-04-21T08:07:59;18.00;;;6.53;;
59950;SDS011;45812;53.540;9.774;2023-04-21T08:10:25;13.77;;;7.43;;
59950;SDS011;45812;53.540;9.774;2023-04-21T08:12:50;15.30;;;7.13;;
59950;SDS011;45812;53.540;9.774;2023-04-21T08:15:15;15.85;;;7.65;;
59950;SDS011;45812;53.540;9.774;2023-04-21T08:17:41;18.45;;;7.50;;
59950;SDS011;45812;53.540;9.774;2023-04-21T08:20:06;17.95;;;7.85;;
59950;SDS011;45812;53.540;9.774;2023-04-21T08:22:32;17.08;;;7.47;;
59950;SDS011;45812;53.540;9.774;2023-04-21T08:24:57;12.95;;;5.93;;
59950;SDS011;45812;53.540;9.774;2023-04-21T08:27:22;16.45;;;7.35;;
59950;SDS011;45812;53.540;9.774;2023-04-21T08:29:48;14.23;;;7.05;;
59950;SDS011;45812;53.540;9.774;2023-04-21T08:32:14;13.13;;;6.05;;
59950;SDS011;45812;53.540;9.774;2023-04-21T08:34:40;13.07;;;6.50;;
59950;SDS011;45812;53.540;9.774;2023-04-21T08:37:05;19.98;;;7.07;;
59950;SDS011;45812;53.540;9.774;2023-04-21T08:39:30;11.60;;;6.47;;
59950;SDS011;45812;53.540;9.774;2023-04-21T08:41:56;17.67;;;6.85;;
59950;SDS011;45812;53.540;9.774;2023-04-21T08:44:23;20.85;;;7.43;;
59950;SDS011;45812;53.540;9.774;2023-04-21T08:46:48;13.70;;;6.93;;
59950;SDS011;45812;53.540;9.774;2023-04-21T08:49:16;16.80;;;7.63;;
59950;SDS011;45812;53.540;9.774;2023-04-21T08:51:44;20.10;;;7.90;;
59950;SDS011;45812;53.540;9.774;2023-04-21T08:54:10;14.15;;;6.75;;
59950;SDS011;45812;53.540;9.774;2023-04-21T08:56:35;12.20;;;6.18;;
59950;SDS011;45812;53.540;9.774;2023-04-21T08:59:00;11.25;;;5.93;;
59950;SDS011;45812;53.540;9.774;2023-04-21T09:01:26;15.90;;;6.57;;
59950;SDS011;45812;53.540;9.774;2023-04-21T09:03:51;12.93;;;6.53;;
59950;SDS011;45812;53.540;9.774;2023-04-21T09:06:16;13.63;;;6.20;;
59950;SDS011;45812;53.540;9.774;2023-04-21T09:08:42;14.02;;;5.85;;
59950;SDS011;45812;53.540;9.774;2023-04-21T09:11:16;20.60;;;7.03;;
59950;SDS011;45812;53.540;9.774;2023-04-21T09:13:41;10.57;;;5.50;;
59950;SDS011;45812;53.540;9.774;2023-04-21T09:16:14;14.90;;;6.20;;
59950;SDS011;45812;53.540;9.774;2023-04-21T09:18:42;11.23;;;6.32;;
59950;SDS011;45812;53.540;9.774;2023-04-21T09:21:09;15.15;;;6.50;;
59950;SDS011;45812;53.540;9.774;2023-04-21T09:23:46;14.70;;;6.30;;
59950;SDS011;45812;53.540;9.774;2023-04-21T09:26:13;12.52;;;6.53;;
59950;SDS011;45812;53.540;9.774;2023-04-21T09:28:41;10.57;;;5.53;;
59950;SDS011;45812;53.540;9.774;2023-04-21T09:31:15;11.23;;;6.10;;
59950;SDS011;45812;53.540;9.774;2023-04-21T09:33:48;12.68;;;6.93;;
59950;SDS011;45812;53.540;9.774;2023-04-21T09:36:17;15.13;;;6.63;;
59950;SDS011;45812;53.540;9.774;2023-04-21T09:38:47;15.80;;;6.20;;
59950;SDS011;45812;53.540;9.774;2023-04-21T09:41:14;14.05;;;6.70;;
59950;SDS011;45812;53.540;9.774;2023-04-21T09:43:41;11.73;;;6.30;;
59950;SDS011;45812;53.540;9.774;2023-04-21T09:46:06;10.67;;;5.90;;
59950;SDS011;45812;53.540;9.774;2023-04-21T09:48:32;10.20;;;6.15;;
59950;SDS011;45812;53.540;9.774;2023-04-21T09:50:59;11.90;;;5.95;;
59950;SDS011;45812;53.540;9.774;2023-04-21T09:53:26;13.32;;;5.75;;
59950;SDS011;45812;53.540;9.774;2023-04-21T09:55:52;13.57;;;5.97;;
59950;SDS011;45812;53.540;9.774;2023-04-21T09:58:21;11.20;;;6.30;;
59950;SDS011;45812;53.540;9.774;2023-04-21T10:00:51;14.05;;;5.78;;
59950;SDS011;45812;53.540;9.774;2023-04-21T10:03:19;12.65;;;6.10;;
59950;SDS011;45812;53.540;9.774;2023-04-21T10:05:48;11.60;;;5.93;;
59950;SDS011;45812;53.540;9.774;2023-04-21T10:08:14;9.85;;;6.13;;
59950;SDS011;45812;53.540;9.774;2023-04-21T10:10:40;10.35;;;5.63;;
59950;SDS011;45812;53.540;9.774;2023-04-21T10:13:06;11.20;;;5.80;;
59950;SDS011;45812;53.540;9.774;2023-04-21T10:15:39;19.50;;;6.43;;
59950;SDS011;45812;53.540;9.774;2023-04-21T10:18:11;12.13;;;6.40;;
59950;SDS011;45812;53.540;9.774;2023-04-21T10:23:35;10.38;;;5.65;;
59950;SDS011;45812;53.540;9.774;2023-04-21T10:26:09;10.32;;;5.53;;
59950;SDS011;45812;53.540;9.774;2023-04-21T10:28:43;8.60;;;5.40;;
59950;SDS011;45812;53.540;9.774;2023-04-21T10:39:33;10.25;;;5.70;;
59950;SDS011;45812;53.540;9.774;2023-04-21T10:45:22;7.78;;;5.05;;
59950;SDS011;45812;53.540;9.774;2023-04-21T10:47:26;8.50;;;5.10;;
59950;SDS011;45812;53.540;9.774;2023-04-21T10:50:10;8.10;;;5.45;;
59950;SDS011;45812;53.540;9.774;2023-04-21T10:52:45;7.88;;;4.90;;
59950;SDS011;45812;53.540;9.774;2023-04-21T10:55:29;7.15;;;5.28;;
59950;SDS011;45812;53.540;9.774;2023-04-21T10:57:55;6.93;;;5.17;;
59950;SDS011;45812;53.540;9.774;2023-04-21T11:00:22;11.13;;;6.20;;
59950;SDS011;45812;53.540;9.774;2023-04-21T11:02:52;12.05;;;5.40;;
59950;SDS011;45812;53.540;9.774;2023-04-21T11:05:28;16.00;;;6.22;;
59950;SDS011;45812;53.540;9.774;2023-04-21T11:08:02;8.05;;;5.13;;
59950;SDS011;45812;53.540;9.774;2023-04-21T11:10:28;15.40;;;5.35;;
59950;SDS011;45812;53.540;9.774;2023-04-21T11:12:55;8.87;;;4.77;;
59950;SDS011;45812;53.540;9.774;2023-04-21T11:15:21;9.98;;;5.43;;
59950;SDS011;45812;53.540;9.774;2023-04-21T11:17:46;8.47;;;4.70;;
59950;SDS011;45812;53.540;9.774;2023-04-21T11:20:12;11.33;;;5.27;;
59950;SDS011;45812;53.540;9.774;2023-04-21T11:22:37;8.13;;;5.30;;
59950;SDS011;45812;53.540;9.774;2023-04-21T11:25:02;5.90;;;4.47;;
59950;SDS011;45812;53.540;9.774;2023-04-21T11:27:28;7.90;;;5.38;;
59950;SDS011;45812;53.540;9.774;2023-04-21T11:29:54;9.27;;;5.53;;
59950;SDS011;45812;53.540;9.774;2023-04-21T11:32:21;8.52;;;5.43;;
59950;SDS011;45812;53.540;9.774;2023-04-21T11:34:46;8.15;;;5.05;;
59950;SDS011;45812;53.540;9.774;2023-04-21T11:37:15;10.75;;;4.82;;
59950;SDS011;45812;53.540;9.774;2023-04-21T11:39:44;11.70;;;4.97;;
59950;SDS011;45812;53.540;9.774;2023-04-21T11:42:10;11.30;;;4.67;;
59950;SDS011;45812;53.540;9.774;2023-04-21T11:44:41;7.40;;;4.55;;
59950;SDS011;45812;53.540;9.774;2023-04-21T11:47:19;9.23;;;4.55;;
59950;SDS011;45812;53.540;9.774;2023-04-21T11:49:53;7.47;;;4.88;;
59950;SDS011;45812;53.540;9.774;2023-04-21T11:52:24;6.75;;;4.60;;
59950;SDS011;45812;53.540;9.774;2023-04-21T11:54:54;8.65;;;4.55;;
59950;SDS011;45812;53.540;9.774;2023-04-21T11:57:21;10.05;;;5.45;;
59950;SDS011;45812;53.540;9.774;2023-04-21T11:59:48;13.70;;;4.80;;
59950;SDS011;45812;53.540;9.774;2023-04-21T12:02:20;7.28;;;4.68;;
59950;SDS011;45812;53.540;9.774;2023-04-21T12:05:05;11.07;;;4.63;;
59950;SDS011;45812;53.540;9.774;2023-04-21T12:07:35;9.52;;;5.10;;
59950;SDS011;45812;53.540;9.774;2023-04-21T12:10:06;8.73;;;4.82;;
59950;SDS011;45812;53.540;9.774;2023-04-21T12:12:35;8.88;;;4.75;;
59950;SDS011;45812;53.540;9.774;2023-04-21T12:15:06;8.50;;;4.63;;
59950;SDS011;45812;53.540;9.774;2023-04-21T12:17:38;7.05;;;4.45;;
59950;SDS011;45812;53.540;9.774;2023-04-21T12:20:07;9.18;;;4.30;;
59950;SDS011;45812;53.540;9.774;2023-04-21T12:22:33;10.15;;;4.80;;
59950;SDS011;45812;53.540;9.774;2023-04-21T12:24:58;10.27;;;5.00;;
59950;SDS011;45812;53.540;9.774;2023-04-21T12:27:25;8.47;;;4.50;;
59950;SDS011;45812;53.540;9.774;2023-04-21T12:29:50;5.95;;;4.45;;
59950;SDS011;45812;53.540;9.774;2023-04-21T12:32:16;6.83;;;4.53;;
59950;SDS011;45812;53.540;9.774;2023-04-21T12:34:41;7.50;;;4.70;;
59950;SDS011;45812;53.540;9.774;2023-04-21T12:37:07;6.78;;;4.97;;
59950;SDS011;45812;53.540;9.774;2023-04-21T12:39:32;12.93;;;4.82;;
59950;SDS011;45812;53.540;9.774;2023-04-21T12:41:58;7.03;;;4.70;;
59950;SDS011;45812;53.540;9.774;2023-04-21T12:44:24;8.38;;;5.15;;
59950;SDS011;45812;53.540;9.774;2023-04-21T12:46:50;8.98;;;4.22;;
59950;SDS011;45812;53.540;9.774;2023-04-21T12:49:16;7.32;;;4.55;;
59950;SDS011;45812;53.540;9.774;2023-04-21T12:51:42;8.43;;;4.15;;
59950;SDS011;45812;53.540;9.774;2023-04-21T12:54:08;10.05;;;4.72;;
59950;SDS011;45812;53.540;9.774;2023-04-21T12:56:33;5.55;;;4.28;;
59950;SDS011;45812;53.540;9.774;2023-04-21T12:58:59;9.25;;;4.55;;
59950;SDS011;45812;53.540;9.774;2023-04-21T13:01:24;10.17;;;4.23;;
59950;SDS011;45812;53.540;9.774;2023-04-21T13:03:49;5.67;;;4.60;;
59950;SDS011;45812;53.540;9.774;2023-04-21T13:06:15;10.50;;;4.60;;
59950;SDS011;45812;53.540;9.774;2023-04-21T13:08:41;7.20;;;4.32;;
59950;SDS011;45812;53.540;9.774;2023-04-21T13:11:06;7.67;;;4.93;;
59950;SDS011;45812;53.540;9.774;2023-04-21T13:13:31;7.10;;;4.63;;
59950;SDS011;45812;53.540;9.774;2023-04-21T13:15:57;7.83;;;4.90;;
59950;SDS011;45812;53.540;9.774;2023-04-21T13:18:22;10.50;;;5.22;;
59950;SDS011;45812;53.540;9.774;2023-04-21T13:20:47;7.20;;;4.57;;
59950;SDS011;45812;53.540;9.774;2023-04-21T13:23:13;6.25;;;4.50;;
59950;SDS011;45812;53.540;9.774;2023-04-21T13:25:39;8.38;;;4.70;;
59950;SDS011;45812;53.540;9.774;2023-04-21T13:28:04;6.15;;;4.22;;
59950;SDS011;45812;53.540;9.774;2023-04-21T13:30:31;6.25;;;4.57;;
59950;SDS011;45812;53.540;9.774;2023-04-21T13:32:57;7.20;;;4.20;;
59950;SDS011;45812;53.540;9.774;2023-04-21T13:35:22;10.83;;;4.73;;
59950;SDS011;45812;53.540;9.774;2023-04-21T13:37:47;8.93;;;4.63;;
59950;SDS011;45812;53.540;9.774;2023-04-21T13:40:13;11.32;;;4.68;;
59950;SDS011;45812;53.540;9.774;2023-04-21T13:42:39;7.03;;;4.60;;
59950;SDS011;45812;53.540;9.774;2023-04-21T13:45:04;9.90;;;4.60;;
59950;SDS011;45812;53.540;9.774;2023-04-21T13:47:31;5.28;;;4.10;;
59950;SDS011;45812;53.540;9.774;2023-04-21T13:49:57;9.50;;;4.53;;
59950;SDS011;45812;53.540;9.774;2023-04-21T13:52:22;7.40;;;4.40;;
59950;SDS011;45812;53.540;9.774;2023-04-21T13:54:47;11.20;;;4.53;;
59950;SDS011;45812;53.540;9.774;2023-04-21T13:57:13;6.05;;;4.30;;
59950;SDS011;45812;53.540;9.774;2023-04-21T13:59:38;5.40;;;4.23;;
59950;SDS011;45812;53.540;9.774;2023-04-21T14:02:05;7.35;;;4.88;;
59950;SDS011;45812;53.540;9.774;2023-04-21T14:04:31;6.53;;;4.20;;
59950;SDS011;45812;53.540;9.774;2023-04-21T14:06:56;6.73;;;4.43;;
59950;SDS011;45812;53.540;9.774;2023-04-21T14:09:21;6.93;;;4.60;;
59950;SDS011;45812;53.540;9.774;2023-04-21T14:11:46;7.10;;;4.23;;
59950;SDS011;45812;53.540;9.774;2023-04-21T14:14:12;8.77;;;4.60;;
59950;SDS011;45812;53.540;9.774;2023-04-21T14:16:37;7.83;;;4.83;;
59950;SDS011;45812;53.540;9.774;2023-04-21T14:19:02;6.03;;;4.47;;
59950;SDS011;45812;53.540;9.774;2023-04-21T14:21:28;12.38;;;4.60;;
59950;SDS011;45812;53.540;9.774;2023-04-21T14:23:53;10.80;;;4.07;;
59950;SDS011;45812;53.540;9.774;2023-04-21T14:26:19;8.10;;;4.93;;
59950;SDS011;45812;53.540;9.774;2023-04-21T14:28:44;9.25;;;5.22;;
59950;SDS011;45812;53.540;9.774;2023-04-21T14:31:10;8.93;;;4.78;;
59950;SDS011;45812;53.540;9.774;2023-04-21T14:33:35;9.43;;;4.17;;
59950;SDS011;45812;53.540;9.774;2023-04-21T14:36:00;6.80;;;4.50;;
59950;SDS011;45812;53.540;9.774;2023-04-21T14:38:25;8.07;;;4.57;;
59950;SDS011;45812;53.540;9.774;2023-04-21T14:40:51;7.88;;;4.47;;
59950;SDS011;45812;53.540;9.774;2023-04-21T14:43:19;7.05;;;4.35;;
59950;SDS011;45812;53.540;9.774;2023-04-21T14:45:45;5.93;;;4.60;;
59950;SDS011;45812;53.540;9.774;2023-04-21T14:48:11;7.43;;;4.45;;